Pagina principale
METAR-TAF:

METAR-TAF

Aeroporti :

Aeroporto di Pantelleria

Pantelleria, Italia

latitudine: 36-49N, longitudine: 011-58E, altezza: 191 m

Osservazione

Il bollettino è stato emesso 21 minuti fa, alle 15:55 UTC
Vento 8 kt da nord/nord-ovest
Temperature 27°C
Umidità 100%
Pressione 1016 hPa
Visibilità 10 km o più
Poco nuvoloso ad un'altezza di 1500 ft

METAR: LICG 181555Z 34008KT 9999 FEW015 27/27 Q1016 RMK BKN SCT083 BKN200 VIS MIN 9999 WIND THR08 29006KT WIND THR21 34006KT BLU

Ora: 18:16 (16:16 UTC)

Previsione

Il bollettino è stato emesso 2 ore e 16 minuti fa, alle 14:00 UTC
Previsione valida dal 18 alle 15 UTC al 18 alle 24 UTC
Vento 12 kt da nord/nord-ovest
Visibilità 10 km o più
Nubi sparse ad un'altezza di 1000 ft

TAF: LICG 181400Z 1815/1824 34012KT 9999 SCT010

Osservazioni e previsioni meteorologiche di più di 4000 aeroporti (messaggi METAR e TAF).

Le stazioni disponibili sono rappresentate dai dischi gialli e rossi sulla carta.

Puntare il mouse per vedere il nome della stazione.

Clicca sopra per visualizzare le osservazioni e previsioni meteorologiche.

Per cambiare la mappa : fare clic sui pulsanti verdi con una croce nera per ingrandire, il pulsante verde con un trattino per diminuire, o sulla freccia verde per le mappe adiacenti.


METAR-TAF: